createdAt,value
2023-02-15T00:01:37.818Z,-2.44
2023-02-15T00:04:16.439Z,-2.41
2023-02-15T00:06:45.699Z,-2.49
2023-02-15T00:09:15.189Z,-2.33
2023-02-15T00:11:52.507Z,-2.42
2023-02-15T00:14:25.503Z,-2.41
2023-02-15T00:17:00.312Z,-2.40
2023-02-15T00:19:29.595Z,-2.38
2023-02-15T00:21:58.862Z,-2.60
2023-02-15T00:24:28.462Z,-2.50
2023-02-15T00:26:57.582Z,-2.49
2023-02-15T00:29:26.857Z,-2.44
2023-02-15T00:31:58.073Z,-2.39
2023-02-15T00:34:29.519Z,-2.49
2023-02-15T00:39:40.245Z,-2.47
2023-02-15T00:42:09.334Z,-2.43
2023-02-15T00:44:39.956Z,-2.48
2023-02-15T00:47:10.950Z,-2.31
2023-02-15T00:49:46.558Z,-2.43
2023-02-15T00:52:15.775Z,-2.40
2023-02-15T00:54:46.626Z,-2.29
2023-02-15T00:57:15.755Z,-2.31
2023-02-15T00:59:45.078Z,-2.26
2023-02-15T01:02:16.224Z,-2.33
2023-02-15T01:04:45.714Z,-2.39
2023-02-15T01:07:14.839Z,-2.41
2023-02-15T01:09:44.087Z,-2.47
2023-02-15T01:12:13.457Z,-2.41
2023-02-15T01:14:42.616Z,-2.34
2023-02-15T01:17:11.803Z,-2.44
2023-02-15T01:19:43.021Z,-2.57
2023-02-15T01:22:12.097Z,-2.44
2023-02-15T01:24:41.151Z,-2.43
2023-02-15T01:27:15.402Z,-2.53
2023-02-15T01:29:46.250Z,-2.42
2023-02-15T01:32:15.440Z,-2.42
2023-02-15T01:34:48.339Z,-2.46
2023-02-15T01:37:17.861Z,-2.55
2023-02-15T01:39:47.536Z,-2.59
2023-02-15T01:42:16.832Z,-2.68
2023-02-15T01:44:56.735Z,-2.58
2023-02-15T01:47:32.573Z,-2.50
2023-02-15T01:50:17.127Z,-2.51
2023-02-15T01:52:57.314Z,-2.48
2023-02-15T01:55:39.083Z,-2.55
2023-02-15T01:58:09.475Z,-2.59
2023-02-15T02:00:38.660Z,-2.56
2023-02-15T02:03:13.680Z,-2.66
2023-02-15T02:05:51.468Z,-2.61
2023-02-15T02:08:21.187Z,-2.77
2023-02-15T02:10:50.310Z,-2.69
2023-02-15T02:13:24.966Z,-2.83
2023-02-15T02:16:20.836Z,-2.80
2023-02-15T02:19:01.980Z,-2.79
2023-02-15T02:21:59.187Z,-2.62
2023-02-15T02:25:01.146Z,-2.77
2023-02-15T02:27:40.640Z,-2.75
2023-02-15T02:30:37.796Z,-2.67
2023-02-15T02:33:40.141Z,-2.66
2023-02-15T02:36:18.870Z,-2.57
2023-02-15T02:39:09.215Z,-2.55
2023-02-15T02:44:32.324Z,-2.87
2023-02-15T02:47:14.712Z,-2.70
2023-02-15T02:49:46.185Z,-2.68
2023-02-15T02:52:42.972Z,-2.68
2023-02-15T02:55:16.265Z,-2.77
2023-02-15T02:57:54.134Z,-2.96
2023-02-15T03:00:24.718Z,-2.81
2023-02-15T03:02:59.006Z,-2.77
2023-02-15T03:05:32.833Z,-2.69
2023-02-15T03:08:10.357Z,-2.63
2023-02-15T03:10:41.814Z,-2.67
2023-02-15T03:13:16.503Z,-2.62
2023-02-15T03:16:01.165Z,-2.68
2023-02-15T03:18:37.072Z,-2.86
2023-02-15T03:21:22.530Z,-2.86
2023-02-15T03:24:05.019Z,-2.78
2023-02-15T03:26:37.173Z,-2.93
2023-02-15T03:29:10.162Z,-2.96
2023-02-15T03:31:43.652Z,-2.99
2023-02-15T03:34:15.449Z,-2.92
2023-02-15T03:36:49.258Z,-2.81
2023-02-15T03:39:30.669Z,-2.79
2023-02-15T03:42:08.205Z,-2.84
2023-02-15T03:44:58.124Z,-2.89
2023-02-15T03:47:29.954Z,-2.98
2023-02-15T03:50:29.379Z,-3.09
2023-02-15T03:53:11.540Z,-2.96
2023-02-15T03:55:43.040Z,-3.02
2023-02-15T03:58:25.609Z,-3.01
2023-02-15T04:01:13.553Z,-3.03
2023-02-15T04:03:53.443Z,-3.13
2023-02-15T04:06:28.354Z,-3.18
2023-02-15T04:09:10.417Z,-3.11
2023-02-15T04:11:47.775Z,-3.26
2023-02-15T04:14:29.782Z,-3.30
2023-02-15T04:17:11.389Z,-3.33
2023-02-15T04:19:53.552Z,-3.29
2023-02-15T04:25:14.210Z,-3.32
2023-02-15T04:27:47.301Z,-3.29
2023-02-15T04:30:19.084Z,-3.49
2023-02-15T04:32:53.509Z,-3.38
2023-02-15T04:35:22.893Z,-3.42
2023-02-15T04:37:52.057Z,-3.41
2023-02-15T04:40:21.896Z,-3.32
2023-02-15T04:42:53.246Z,-3.44
2023-02-15T04:45:27.728Z,-3.58
2023-02-15T04:47:56.969Z,-3.47
2023-02-15T04:50:26.162Z,-3.36
2023-02-15T04:55:35.639Z,-3.44
2023-02-15T04:58:06.691Z,-3.33
2023-02-15T05:00:37.238Z,-3.47
2023-02-15T05:03:06.465Z,-3.57
2023-02-15T05:05:41.153Z,-3.53
2023-02-15T05:08:10.316Z,-3.52
2023-02-15T05:10:39.560Z,-3.53
2023-02-15T05:13:15.964Z,-3.46
2023-02-15T05:15:50.234Z,-3.56
2023-02-15T05:18:20.022Z,-3.51
2023-02-15T05:20:49.797Z,-3.60
2023-02-15T05:23:19.388Z,-3.56
2023-02-15T05:26:05.099Z,-3.58
2023-02-15T05:28:37.283Z,-3.64
2023-02-15T05:31:09.512Z,-3.51
2023-02-15T05:33:39.169Z,-3.46
2023-02-15T05:36:10.252Z,-3.42
2023-02-15T05:38:45.604Z,-3.72
2023-02-15T05:41:15.249Z,-3.58
2023-02-15T05:43:46.336Z,-3.59
2023-02-15T05:46:16.424Z,-3.66
2023-02-15T05:48:45.613Z,-3.72
2023-02-15T05:51:16.656Z,-3.69
2023-02-15T05:53:46.136Z,-3.53
2023-02-15T05:56:15.355Z,-3.43
2023-02-15T05:58:51.779Z,-3.35
2023-02-15T06:01:23.130Z,-3.35
2023-02-15T06:03:52.682Z,-3.38
2023-02-15T06:06:21.819Z,-3.45
2023-02-15T06:08:51.282Z,-3.27
2023-02-15T06:11:20.582Z,-3.38
2023-02-15T06:13:52.093Z,-3.35
2023-02-15T06:16:23.929Z,-3.43
2023-02-15T06:18:53.810Z,-3.40
2023-02-15T06:21:23.261Z,-3.51
2023-02-15T06:26:37.485Z,-3.62
2023-02-15T06:29:08.609Z,-3.51
2023-02-15T06:31:38.053Z,-3.42
2023-02-15T06:34:07.423Z,-3.35
2023-02-15T06:36:37.440Z,-3.74
2023-02-15T06:39:07.114Z,-3.75
2023-02-15T06:41:36.393Z,-3.60
2023-02-15T06:44:13.263Z,-3.61
2023-02-15T06:46:43.805Z,-3.57
2023-02-15T06:49:13.100Z,-3.76
2023-02-15T06:51:48.060Z,-3.53
2023-02-15T06:54:20.138Z,-3.47
2023-02-15T06:56:49.275Z,-3.37
2023-02-15T06:59:22.716Z,-3.35
2023-02-15T07:01:51.987Z,-3.39
2023-02-15T07:04:21.103Z,-3.36
2023-02-15T07:06:56.613Z,-3.34
2023-02-15T07:09:31.016Z,-3.19
2023-02-15T07:14:50.113Z,-3.36
2023-02-15T07:17:36.318Z,-3.43
2023-02-15T07:20:14.391Z,-3.22
2023-02-15T07:22:54.975Z,-3.12
2023-02-15T07:25:24.162Z,-3.01
2023-02-15T07:27:59.134Z,-3.07
2023-02-15T07:30:31.102Z,-3.15
2023-02-15T07:33:19.334Z,-3.09
2023-02-15T07:35:57.524Z,-3.16
2023-02-15T07:38:28.215Z,-3.00
2023-02-15T07:41:07.785Z,-3.04
2023-02-15T07:43:38.353Z,-2.78
2023-02-15T07:46:12.448Z,-2.91
2023-02-15T07:48:42.709Z,-2.77
2023-02-15T07:51:15.014Z,-2.71
2023-02-15T07:53:44.743Z,-2.59
2023-02-15T07:56:15.549Z,-2.50
2023-02-15T07:58:54.419Z,-2.42
2023-02-15T08:01:27.445Z,-2.46
2023-02-15T08:03:59.385Z,-2.60
2023-02-15T08:06:31.091Z,-2.70
2023-02-15T08:09:02.389Z,-2.66
2023-02-15T08:11:45.415Z,-2.59
2023-02-15T08:14:16.163Z,-2.66
2023-02-15T08:16:53.984Z,-2.60
2023-02-15T08:19:28.213Z,-2.66
2023-02-15T08:21:59.909Z,-2.66
2023-02-15T08:24:31.062Z,-2.89
2023-02-15T08:27:06.475Z,-3.01
2023-02-15T08:29:37.578Z,-3.03
2023-02-15T08:32:10.825Z,-2.78
2023-02-15T08:34:43.286Z,-2.82
2023-02-15T08:37:12.624Z,-3.22
2023-02-15T08:39:43.589Z,-3.22
2023-02-15T08:42:18.227Z,-3.28
2023-02-15T08:44:53.137Z,-3.24
2023-02-15T08:47:24.275Z,-3.23
2023-02-15T08:49:53.829Z,-3.18
2023-02-15T08:52:22.983Z,-3.12
2023-02-15T08:54:52.154Z,-2.94
2023-02-15T08:57:21.263Z,-2.89
2023-02-15T08:59:51.497Z,-3.05
2023-02-15T09:02:25.731Z,-2.93
2023-02-15T09:04:56.897Z,-2.72
2023-02-15T09:07:26.058Z,-2.76
2023-02-15T09:09:55.263Z,-3.05
2023-02-15T09:12:31.913Z,-2.98
2023-02-15T09:15:01.306Z,-2.78
2023-02-15T09:17:32.577Z,-2.58
2023-02-15T09:20:04.217Z,-2.64
2023-02-15T09:22:34.162Z,-2.89
2023-02-15T09:25:03.217Z,-2.94
2023-02-15T09:27:37.507Z,-2.91
2023-02-15T09:30:07.637Z,-2.88
2023-02-15T09:32:36.894Z,-2.88
2023-02-15T09:35:10.503Z,-2.89
2023-02-15T09:37:40.452Z,-3.05
2023-02-15T09:40:10.649Z,-3.10
2023-02-15T09:42:57.798Z,-2.84
2023-02-15T09:45:43.638Z,-2.59
2023-02-15T09:48:39.037Z,-2.77
2023-02-15T09:54:26.979Z,-2.68
2023-02-15T09:57:01.245Z,-2.58
2023-02-15T09:59:37.886Z,-2.76
2023-02-15T10:02:22.088Z,-2.93
2023-02-15T10:05:03.430Z,-2.95
2023-02-15T10:08:01.371Z,-2.88
2023-02-15T10:10:41.962Z,-3.03
2023-02-15T10:13:33.360Z,-3.13
2023-02-15T10:16:19.633Z,-3.02
2023-02-15T10:18:59.528Z,-3.12
2023-02-15T10:21:42.794Z,-2.91
2023-02-15T10:24:42.099Z,-2.84
2023-02-15T10:27:16.196Z,-2.64
2023-02-15T10:29:53.623Z,-2.73
2023-02-15T10:32:26.673Z,-2.49
2023-02-15T10:35:03.830Z,-2.38
2023-02-15T10:37:47.902Z,-2.44
2023-02-15T10:40:28.920Z,-2.54
2023-02-15T10:43:13.517Z,-2.28
2023-02-15T10:45:57.406Z,-2.51
2023-02-15T10:48:49.702Z,-2.46
2023-02-15T10:51:28.027Z,-2.29
2023-02-15T10:54:14.350Z,-2.35
2023-02-15T10:56:53.539Z,-2.51
2023-02-15T10:59:44.774Z,-2.63
2023-02-15T11:02:24.033Z,-2.67
2023-02-15T11:05:07.410Z,-2.92
2023-02-15T11:07:41.582Z,-2.93
2023-02-15T11:10:27.713Z,-2.75
2023-02-15T11:13:07.823Z,-2.72
2023-02-15T11:15:40.380Z,-2.71
2023-02-15T11:18:19.933Z,-2.79
2023-02-15T11:20:56.779Z,-2.85
2023-02-15T11:23:30.732Z,-2.78
2023-02-15T11:26:02.807Z,-2.82
2023-02-15T11:28:45.039Z,-2.73
2023-02-15T11:31:20.210Z,-2.70
2023-02-15T11:33:54.729Z,-2.56
2023-02-15T11:36:27.793Z,-2.78
2023-02-15T11:39:04.850Z,-2.84
2023-02-15T11:41:39.370Z,-2.79
2023-02-15T11:44:19.240Z,-2.69
2023-02-15T11:46:49.551Z,-2.87
2023-02-15T11:49:25.844Z,-2.72
2023-02-15T11:51:55.939Z,-2.79
2023-02-15T11:54:34.106Z,-2.64
2023-02-15T11:57:13.812Z,-2.74
2023-02-15T11:59:49.933Z,-2.80
2023-02-15T12:02:22.124Z,-2.96
2023-02-15T12:04:56.888Z,-2.94
2023-02-15T12:07:30.226Z,-2.97
2023-02-15T12:10:14.458Z,-2.90
2023-02-15T12:12:43.756Z,-2.83
2023-02-15T12:15:15.762Z,-2.87
2023-02-15T12:17:53.235Z,-2.73
2023-02-15T12:20:37.427Z,-2.78
2023-02-15T12:23:09.024Z,-2.91
2023-02-15T12:25:45.812Z,-2.82
2023-02-15T12:28:29.033Z,-2.84
2023-02-15T12:31:04.151Z,-2.94
2023-02-15T12:33:46.170Z,-2.86
2023-02-15T12:36:22.352Z,-3.14
2023-02-15T12:39:20.044Z,-3.10
2023-02-15T12:42:02.474Z,-3.26
2023-02-15T12:44:32.040Z,-3.22
2023-02-15T12:53:44.731Z,-5.09
2023-02-15T12:56:15.564Z,-3.75
2023-02-15T12:59:08.152Z,-3.25
2023-02-15T13:01:37.924Z,-3.14
2023-02-15T13:04:22.504Z,-3.02
2023-02-15T13:06:55.109Z,-2.91
2023-02-15T13:09:39.923Z,-2.82
2023-02-15T13:12:19.172Z,-2.97
2023-02-15T13:15:07.749Z,-2.82
2023-02-15T13:17:38.513Z,-2.71
2023-02-15T13:20:24.401Z,-2.80
2023-02-15T13:22:57.083Z,-2.97
2023-02-15T13:25:32.422Z,-3.09
2023-02-15T13:28:06.408Z,-3.06
2023-02-15T13:30:53.452Z,-3.02
2023-02-15T13:33:28.428Z,-3.12
2023-02-15T13:36:08.559Z,-3.05
2023-02-15T13:38:53.384Z,-2.99
2023-02-15T13:41:54.335Z,-3.11
2023-02-15T13:44:39.030Z,-3.16
2023-02-15T13:47:24.228Z,-3.14
2023-02-15T13:50:10.936Z,-3.13
2023-02-15T13:52:49.123Z,-3.32
2023-02-15T13:55:38.661Z,-3.19
2023-02-15T13:59:02.791Z,-3.16
2023-02-15T14:01:42.753Z,-3.14
2023-02-15T14:04:33.302Z,-3.22
2023-02-15T14:07:23.595Z,-3.44
2023-02-15T14:10:05.400Z,-3.41
2023-02-15T14:12:47.214Z,-3.39
2023-02-15T14:15:37.360Z,-3.54
2023-02-15T14:18:19.155Z,-3.36
2023-02-15T14:21:09.581Z,-3.33
2023-02-15T14:23:50.937Z,-3.52
2023-02-15T14:26:32.461Z,-3.66
2023-02-15T14:29:13.878Z,-3.73
2023-02-15T14:31:50.019Z,-3.71
2023-02-15T14:34:24.902Z,-3.78
2023-02-15T14:36:56.131Z,-3.72
2023-02-15T14:40:00.439Z,-3.78
2023-02-15T14:42:37.027Z,-3.79
2023-02-15T14:45:28.889Z,-3.82
2023-02-15T14:48:09.333Z,-4.17
2023-02-15T14:50:47.084Z,-3.78
2023-02-15T14:53:36.552Z,-3.88
2023-02-15T14:56:18.690Z,-4.20
2023-02-15T14:59:01.660Z,-3.76
2023-02-15T15:01:34.125Z,-3.71
2023-02-15T15:04:10.009Z,-3.90
2023-02-15T15:06:42.048Z,-3.87
2023-02-15T15:09:14.920Z,-3.81
2023-02-15T15:11:46.807Z,-3.78
2023-02-15T15:14:41.891Z,-3.76
2023-02-15T15:17:15.368Z,-3.81
2023-02-15T15:20:41.519Z,-3.87
2023-02-15T15:23:43.436Z,-3.83
2023-02-15T15:26:38.184Z,-3.75
2023-02-15T15:29:09.136Z,-4.12
2023-02-15T15:31:47.016Z,-3.68
2023-02-15T15:34:54.686Z,-3.79
2023-02-15T15:38:13.122Z,-4.00
2023-02-15T15:41:10.486Z,-4.03
2023-02-15T15:44:14.243Z,-5.57
2023-02-15T15:47:10.124Z,-4.08
2023-02-15T15:49:41.943Z,-4.48
2023-02-15T15:52:16.163Z,-3.53
2023-02-15T15:54:56.098Z,-3.88
2023-02-15T15:57:31.796Z,-3.80
2023-02-15T16:00:01.750Z,-3.97
2023-02-15T16:02:53.179Z,-4.01
2023-02-15T16:05:22.671Z,-3.82
2023-02-15T16:07:52.500Z,-3.70
2023-02-15T16:10:26.090Z,-3.90
2023-02-15T16:12:58.381Z,-3.63
2023-02-15T16:15:32.749Z,-3.84
2023-02-15T16:18:03.907Z,-3.78
2023-02-15T16:20:36.086Z,-3.73
2023-02-15T16:23:27.112Z,-3.87
2023-02-15T16:26:11.425Z,-3.79
2023-02-15T16:29:03.831Z,-3.79
2023-02-15T16:31:32.774Z,-3.69
2023-02-15T16:34:03.320Z,-3.71
2023-02-15T16:36:45.628Z,-3.71
2023-02-15T16:39:22.760Z,-3.84
2023-02-15T16:41:57.355Z,-3.86
2023-02-15T16:44:33.476Z,-3.91
2023-02-15T16:47:16.485Z,-3.78
2023-02-15T16:49:49.794Z,-3.77
2023-02-15T16:52:24.732Z,-3.72
2023-02-15T16:54:58.844Z,-3.76
2023-02-15T16:57:34.321Z,-3.79
2023-02-15T17:00:09.672Z,-3.71
2023-02-15T17:02:57.165Z,-4.00
2023-02-15T17:05:34.824Z,-3.76
2023-02-15T17:08:16.395Z,-3.75
2023-02-15T17:10:48.628Z,-3.77
2023-02-15T17:13:23.968Z,-3.79
2023-02-15T17:16:26.158Z,-3.75
2023-02-15T17:18:58.905Z,-3.73
2023-02-15T17:21:33.391Z,-3.87
2023-02-15T17:26:44.533Z,-3.89
2023-02-15T17:29:20.071Z,-4.00
2023-02-15T17:31:54.510Z,-3.83
2023-02-15T17:34:46.427Z,-3.92
2023-02-15T17:37:25.493Z,-4.04
2023-02-15T17:39:55.102Z,-3.97
2023-02-15T17:42:24.628Z,-3.89
2023-02-15T17:44:53.985Z,-3.84
2023-02-15T17:47:30.053Z,-3.89
2023-02-15T17:50:06.753Z,-3.88
2023-02-15T17:52:36.262Z,-3.98
2023-02-15T17:55:29.148Z,-3.98
2023-02-15T17:57:58.546Z,-3.75
2023-02-15T18:00:40.618Z,-3.89
2023-02-15T18:03:26.835Z,-3.74
2023-02-15T18:06:09.006Z,-3.83
2023-02-15T18:08:51.167Z,-3.74
2023-02-15T18:11:40.274Z,-3.69
2023-02-15T18:14:11.890Z,-3.77
2023-02-15T18:16:44.107Z,-3.83
2023-02-15T18:19:19.901Z,-3.84
2023-02-15T18:21:52.070Z,-4.01
2023-02-15T18:24:28.427Z,-4.04
2023-02-15T18:26:57.891Z,-3.88
2023-02-15T18:29:27.125Z,-3.97
2023-02-15T18:32:03.168Z,-3.96
2023-02-15T18:34:38.369Z,-3.97
2023-02-15T18:37:14.581Z,-3.90
2023-02-15T18:39:47.189Z,-4.05
2023-02-15T18:42:23.255Z,-4.22
2023-02-15T18:44:57.456Z,-4.10
2023-02-15T18:47:33.947Z,-4.05
2023-02-15T18:50:11.528Z,-3.89
2023-02-15T18:52:41.676Z,-3.93
2023-02-15T18:55:19.824Z,-3.98
2023-02-15T18:57:50.264Z,-4.11
2023-02-15T19:00:21.539Z,-3.97
2023-02-15T19:02:56.438Z,-3.91
2023-02-15T19:05:29.347Z,-4.04
2023-02-15T19:08:00.416Z,-3.85
2023-02-15T19:10:35.639Z,-3.94
2023-02-15T19:13:09.777Z,-4.03
2023-02-15T19:15:40.154Z,-4.02
2023-02-15T19:18:09.438Z,-4.02
2023-02-15T19:20:43.470Z,-4.13
2023-02-15T19:23:18.899Z,-4.18
2023-02-15T19:25:55.206Z,-4.14
2023-02-15T19:28:32.277Z,-4.10
2023-02-15T19:31:01.596Z,-4.02
2023-02-15T19:33:31.334Z,-4.35
2023-02-15T19:36:02.847Z,-4.22
2023-02-15T19:38:36.148Z,-4.09
2023-02-15T19:41:22.858Z,-4.11
2023-02-15T19:43:55.527Z,-4.12
2023-02-15T19:46:36.714Z,-4.16
2023-02-15T19:49:06.135Z,-4.25
2023-02-15T19:51:39.034Z,-4.28
2023-02-15T19:54:23.213Z,-4.16
2023-02-15T19:56:52.522Z,-4.14
2023-02-15T19:59:26.559Z,-4.02
2023-02-15T20:01:56.272Z,-4.19
2023-02-15T20:04:25.979Z,-4.05
2023-02-15T20:06:59.832Z,-4.04
2023-02-15T20:09:33.450Z,-4.09
2023-02-15T20:14:38.493Z,-4.11
2023-02-15T20:17:07.585Z,-4.12
2023-02-15T20:19:38.554Z,-3.99
2023-02-15T20:22:19.774Z,-4.04
2023-02-15T20:24:48.978Z,-4.32
2023-02-15T20:27:18.834Z,-4.26
2023-02-15T20:32:32.701Z,-4.35
2023-02-15T20:35:03.501Z,-4.16
2023-02-15T20:37:34.620Z,-4.26
2023-02-15T20:40:03.753Z,-4.25
2023-02-15T20:42:32.986Z,-4.17
2023-02-15T20:45:02.825Z,-4.23
2023-02-15T20:47:33.019Z,-4.05
2023-02-15T20:50:02.301Z,-4.00
2023-02-15T20:52:35.249Z,-4.09
2023-02-15T20:55:04.948Z,-4.14
2023-02-15T20:57:34.156Z,-4.21
2023-02-15T21:00:05.028Z,-4.23
2023-02-15T21:03:07.091Z,-4.24
2023-02-15T21:05:36.307Z,-4.10
2023-02-15T21:08:21.696Z,-4.01
2023-02-15T21:11:00.723Z,-4.26
2023-02-15T21:13:35.582Z,-4.20
2023-02-15T21:16:05.262Z,-4.36
2023-02-15T21:18:46.072Z,-4.34
2023-02-15T21:21:29.439Z,-4.40
2023-02-15T21:24:16.352Z,-4.63
2023-02-15T21:26:53.949Z,-4.76
2023-02-15T21:29:28.423Z,-5.08
2023-02-15T21:32:07.346Z,-4.57
2023-02-15T21:34:36.672Z,-4.35
2023-02-15T21:37:06.233Z,-4.53
2023-02-15T21:39:38.539Z,-4.58
2023-02-15T21:42:25.287Z,-4.45
2023-02-15T21:45:07.528Z,-4.39
2023-02-15T21:47:49.626Z,-4.36
2023-02-15T21:50:39.678Z,-4.49
2023-02-15T21:53:12.534Z,-4.51
2023-02-15T21:55:43.898Z,-4.43
2023-02-15T21:58:22.229Z,-4.44
2023-02-15T22:00:59.400Z,-4.46
2023-02-15T22:03:39.442Z,-4.37
2023-02-15T22:06:13.812Z,-4.58
2023-02-15T22:08:43.262Z,-4.40
2023-02-15T22:11:16.697Z,-4.41
2023-02-15T22:13:46.767Z,-4.49
2023-02-15T22:16:19.065Z,-4.41
2023-02-15T22:18:48.805Z,-4.45
2023-02-15T22:21:18.760Z,-4.49
2023-02-15T22:23:52.937Z,-4.66
2023-02-15T22:26:26.221Z,-4.45
2023-02-15T22:28:55.653Z,-4.65
2023-02-15T22:31:25.562Z,-4.43
2023-02-15T22:34:05.407Z,-4.45
2023-02-15T22:36:45.675Z,-4.42
2023-02-15T22:39:15.052Z,-4.36
2023-02-15T22:41:48.049Z,-4.28
2023-02-15T22:44:23.876Z,-4.43
2023-02-15T22:46:53.419Z,-4.64
2023-02-15T22:49:22.687Z,-4.48
2023-02-15T22:51:52.564Z,-4.48
2023-02-15T22:54:22.010Z,-4.44
2023-02-15T22:56:58.434Z,-4.31
2023-02-15T22:59:31.633Z,-4.26
2023-02-15T23:02:02.990Z,-4.30
2023-02-15T23:04:32.250Z,-4.42
2023-02-15T23:07:01.499Z,-4.41
2023-02-15T23:09:30.879Z,-4.36
2023-02-15T23:12:01.968Z,-4.39
2023-02-15T23:14:41.019Z,-4.36
2023-02-15T23:17:11.038Z,-4.44
2023-02-15T23:19:40.119Z,-4.24
2023-02-15T23:22:15.254Z,-4.21
2023-02-15T23:24:47.106Z,-4.22
2023-02-15T23:27:33.100Z,-4.17
2023-02-15T23:30:04.373Z,-4.20
2023-02-15T23:32:34.630Z,-4.23
2023-02-15T23:35:03.871Z,-4.40
2023-02-15T23:37:33.103Z,-4.40
2023-02-15T23:40:20.168Z,-4.62
2023-02-15T23:42:51.809Z,-4.42
2023-02-15T23:45:25.440Z,-4.29
2023-02-15T23:48:08.198Z,-4.45
2023-02-15T23:50:37.498Z,-4.45
2023-02-15T23:53:06.729Z,-4.41
2023-02-15T23:55:38.220Z,-4.35
2023-02-15T23:58:16.593Z,-4.30
